sensor_id;sensor_type;location;lat;lon;timestamp;temperature;humidity
7842;DHT22;3966;51.052;13.820;2023-03-14T00:00:12;11.40;99.90
7842;DHT22;3966;51.052;13.820;2023-03-14T00:02:38;11.40;99.90
7842;DHT22;3966;51.052;13.820;2023-03-14T00:05:05;11.40;99.90
7842;DHT22;3966;51.052;13.820;2023-03-14T00:07:36;11.40;99.90
7842;DHT22;3966;51.052;13.820;2023-03-14T00:10:10;11.50;99.90
7842;DHT22;3966;51.052;13.820;2023-03-14T00:12:37;11.50;99.90
7842;DHT22;3966;51.052;13.820;2023-03-14T00:15:04;11.50;99.90
7842;DHT22;3966;51.052;13.820;2023-03-14T00:17:32;11.50;99.90
7842;DHT22;3966;51.052;13.820;2023-03-14T00:19:58;11.50;99.90
7842;DHT22;3966;51.052;13.820;2023-03-14T00:22:30;11.50;99.90
7842;DHT22;3966;51.052;13.820;2023-03-14T00:24:56;11.50;99.90
7842;DHT22;3966;51.052;13.820;2023-03-14T00:27:22;11.50;99.90
7842;DHT22;3966;51.052;13.820;2023-03-14T00:29:47;11.50;99.90
7842;DHT22;3966;51.052;13.820;2023-03-14T00:32:13;11.40;99.90
7842;DHT22;3966;51.052;13.820;2023-03-14T00:34:39;11.40;99.90
7842;DHT22;3966;51.052;13.820;2023-03-14T00:37:05;11.40;99.90
7842;DHT22;3966;51.052;13.820;2023-03-14T00:39:31;11.40;99.90
7842;DHT22;3966;51.052;13.820;2023-03-14T00:41:56;11.40;99.90
7842;DHT22;3966;51.052;13.820;2023-03-14T00:44:22;11.40;99.90
7842;DHT22;3966;51.052;13.820;2023-03-14T00:46:48;11.40;99.90
7842;DHT22;3966;51.052;13.820;2023-03-14T00:49:13;11.40;99.90
7842;DHT22;3966;51.052;13.820;2023-03-14T00:51:39;11.40;99.90
7842;DHT22;3966;51.052;13.820;2023-03-14T00:54:05;11.40;99.90
7842;DHT22;3966;51.052;13.820;2023-03-14T00:56:30;11.30;99.90
7842;DHT22;3966;51.052;13.820;2023-03-14T00:58:56;11.40;99.90
7842;DHT22;3966;51.052;13.820;2023-03-14T01:01:23;11.40;99.90
7842;DHT22;3966;51.052;13.820;2023-03-14T01:03:53;11.40;99.90
7842;DHT22;3966;51.052;13.820;2023-03-14T01:06:22;11.40;99.90
7842;DHT22;3966;51.052;13.820;2023-03-14T01:08:48;11.40;99.90
7842;DHT22;3966;51.052;13.820;2023-03-14T01:11:20;11.40;99.90
7842;DHT22;3966;51.052;13.820;2023-03-14T01:13:46;11.40;99.90
7842;DHT22;3966;51.052;13.820;2023-03-14T01:16:13;11.40;99.90
7842;DHT22;3966;51.052;13.820;2023-03-14T01:18:40;11.40;99.90
7842;DHT22;3966;51.052;13.820;2023-03-14T01:21:14;11.40;99.90
7842;DHT22;3966;51.052;13.820;2023-03-14T01:23:41;11.40;99.90
7842;DHT22;3966;51.052;13.820;2023-03-14T01:26:11;11.30;99.90
7842;DHT22;3966;51.052;13.820;2023-03-14T01:28:37;11.30;99.90
7842;DHT22;3966;51.052;13.820;2023-03-14T01:31:05;11.40;99.90
7842;DHT22;3966;51.052;13.820;2023-03-14T01:33:30;11.30;99.90
7842;DHT22;3966;51.052;13.820;2023-03-14T01:35:56;11.30;99.90
7842;DHT22;3966;51.052;13.820;2023-03-14T01:38:22;11.40;99.90
7842;DHT22;3966;51.052;13.820;2023-03-14T01:40:47;11.30;99.90
7842;DHT22;3966;51.052;13.820;2023-03-14T01:43:17;11.30;99.90
7842;DHT22;3966;51.052;13.820;2023-03-14T01:51:49;11.30;99.90
7842;DHT22;3966;51.052;13.820;2023-03-14T01:56:53;11.30;99.90
7842;DHT22;3966;51.052;13.820;2023-03-14T01:59:20;11.30;99.90
7842;DHT22;3966;51.052;13.820;2023-03-14T02:01:47;11.30;99.90
7842;DHT22;3966;51.052;13.820;2023-03-14T02:04:15;11.30;99.90
7842;DHT22;3966;51.052;13.820;2023-03-14T02:06:50;11.30;99.90
7842;DHT22;3966;51.052;13.820;2023-03-14T02:09:16;11.30;99.90
7842;DHT22;3966;51.052;13.820;2023-03-14T02:11:43;11.30;99.90
7842;DHT22;3966;51.052;13.820;2023-03-14T02:14:17;11.30;99.90
7842;DHT22;3966;51.052;13.820;2023-03-14T02:16:46;11.30;99.90
7842;DHT22;3966;51.052;13.820;2023-03-14T02:19:14;11.30;99.90
7842;DHT22;3966;51.052;13.820;2023-03-14T02:22:05;11.30;99.90
7842;DHT22;3966;51.052;13.820;2023-03-14T02:27:09;11.30;99.90
7842;DHT22;3966;51.052;13.820;2023-03-14T02:29:39;11.40;99.90
7842;DHT22;3966;51.052;13.820;2023-03-14T02:32:06;11.50;99.90
7842;DHT22;3966;51.052;13.820;2023-03-14T02:34:33;11.50;99.90
7842;DHT22;3966;51.052;13.820;2023-03-14T02:37:00;11.40;99.90
7842;DHT22;3966;51.052;13.820;2023-03-14T02:39:33;11.40;99.90
7842;DHT22;3966;51.052;13.820;2023-03-14T02:42:00;11.30;99.90
7842;DHT22;3966;51.052;13.820;2023-03-14T02:44:27;11.30;99.90
7842;DHT22;3966;51.052;13.820;2023-03-14T02:46:52;11.40;99.90
7842;DHT22;3966;51.052;13.820;2023-03-14T02:49:18;11.50;99.90
7842;DHT22;3966;51.052;13.820;2023-03-14T02:51:44;11.50;99.90
7842;DHT22;3966;51.052;13.820;2023-03-14T02:54:11;11.50;99.90
7842;DHT22;3966;51.052;13.820;2023-03-14T02:56:37;11.50;99.90
7842;DHT22;3966;51.052;13.820;2023-03-14T02:59:06;11.50;99.90
7842;DHT22;3966;51.052;13.820;2023-03-14T03:01:32;11.50;99.90
7842;DHT22;3966;51.052;13.820;2023-03-14T03:03:58;11.50;99.90
7842;DHT22;3966;51.052;13.820;2023-03-14T03:06:24;11.50;99.90
7842;DHT22;3966;51.052;13.820;2023-03-14T03:08:50;11.50;99.90
7842;DHT22;3966;51.052;13.820;2023-03-14T03:11:15;11.60;99.90
7842;DHT22;3966;51.052;13.820;2023-03-14T03:13:41;11.50;99.90
7842;DHT22;3966;51.052;13.820;2023-03-14T03:16:07;11.50;99.90
7842;DHT22;3966;51.052;13.820;2023-03-14T03:18:32;11.50;99.90
7842;DHT22;3966;51.052;13.820;2023-03-14T03:21:04;11.60;99.90
7842;DHT22;3966;51.052;13.820;2023-03-14T03:23:31;11.60;99.90
7842;DHT22;3966;51.052;13.820;2023-03-14T03:25:56;11.60;99.90
7842;DHT22;3966;51.052;13.820;2023-03-14T03:28:22;11.60;99.90
7842;DHT22;3966;51.052;13.820;2023-03-14T03:30:48;11.60;99.90
7842;DHT22;3966;51.052;13.820;2023-03-14T03:33:14;11.50;99.90
7842;DHT22;3966;51.052;13.820;2023-03-14T03:35:48;11.50;99.90
7842;DHT22;3966;51.052;13.820;2023-03-14T03:38:14;11.30;99.90
7842;DHT22;3966;51.052;13.820;2023-03-14T03:40:40;11.30;99.90
7842;DHT22;3966;51.052;13.820;2023-03-14T03:43:05;11.30;99.90
7842;DHT22;3966;51.052;13.820;2023-03-14T03:45:31;11.30;99.90
7842;DHT22;3966;51.052;13.820;2023-03-14T03:47:56;11.30;99.90
7842;DHT22;3966;51.052;13.820;2023-03-14T03:50:22;11.30;99.90
7842;DHT22;3966;51.052;13.820;2023-03-14T03:52:48;11.20;99.90
7842;DHT22;3966;51.052;13.820;2023-03-14T03:55:14;11.20;99.90
7842;DHT22;3966;51.052;13.820;2023-03-14T03:57:39;11.20;99.90
7842;DHT22;3966;51.052;13.820;2023-03-14T04:00:06;11.30;99.90
7842;DHT22;3966;51.052;13.820;2023-03-14T04:02:34;11.30;99.90
7842;DHT22;3966;51.052;13.820;2023-03-14T04:05:00;11.30;99.90
7842;DHT22;3966;51.052;13.820;2023-03-14T04:07:25;11.30;99.90
7842;DHT22;3966;51.052;13.820;2023-03-14T04:09:51;11.20;99.90
7842;DHT22;3966;51.052;13.820;2023-03-14T04:12:16;11.10;99.90
7842;DHT22;3966;51.052;13.820;2023-03-14T04:14:42;11.00;99.90
7842;DHT22;3966;51.052;13.820;2023-03-14T04:17:08;11.00;99.90
7842;DHT22;3966;51.052;13.820;2023-03-14T04:19:33;11.00;99.90
7842;DHT22;3966;51.052;13.820;2023-03-14T04:21:59;10.80;99.90
7842;DHT22;3966;51.052;13.820;2023-03-14T04:24:25;10.90;99.90
7842;DHT22;3966;51.052;13.820;2023-03-14T04:26:50;11.00;99.90
7842;DHT22;3966;51.052;13.820;2023-03-14T04:29:16;11.00;99.90
7842;DHT22;3966;51.052;13.820;2023-03-14T04:31:42;11.00;99.90
7842;DHT22;3966;51.052;13.820;2023-03-14T04:34:07;10.90;99.90
7842;DHT22;3966;51.052;13.820;2023-03-14T04:36:33;10.80;99.90
7842;DHT22;3966;51.052;13.820;2023-03-14T04:38:58;10.80;99.90
7842;DHT22;3966;51.052;13.820;2023-03-14T04:41:24;10.80;99.90
7842;DHT22;3966;51.052;13.820;2023-03-14T04:43:50;10.90;99.90
7842;DHT22;3966;51.052;13.820;2023-03-14T04:46:16;11.00;99.90
7842;DHT22;3966;51.052;13.820;2023-03-14T04:48:41;11.10;99.90
7842;DHT22;3966;51.052;13.820;2023-03-14T04:51:07;11.20;99.90
7842;DHT22;3966;51.052;13.820;2023-03-14T04:53:33;11.20;99.90
7842;DHT22;3966;51.052;13.820;2023-03-14T04:55:59;11.10;99.90
7842;DHT22;3966;51.052;13.820;2023-03-14T04:58:25;11.10;99.90
7842;DHT22;3966;51.052;13.820;2023-03-14T05:00:51;11.10;99.90
7842;DHT22;3966;51.052;13.820;2023-03-14T05:03:17;11.10;99.90
7842;DHT22;3966;51.052;13.820;2023-03-14T05:05:44;11.10;99.90
7842;DHT22;3966;51.052;13.820;2023-03-14T05:08:10;11.30;99.90
7842;DHT22;3966;51.052;13.820;2023-03-14T05:10:36;11.40;99.90
7842;DHT22;3966;51.052;13.820;2023-03-14T05:13:02;11.40;99.90
7842;DHT22;3966;51.052;13.820;2023-03-14T05:15:27;11.40;99.90
7842;DHT22;3966;51.052;13.820;2023-03-14T05:17:53;11.40;99.90
7842;DHT22;3966;51.052;13.820;2023-03-14T05:20:20;11.50;99.90
7842;DHT22;3966;51.052;13.820;2023-03-14T05:22:45;11.50;99.90
7842;DHT22;3966;51.052;13.820;2023-03-14T05:25:11;11.50;99.90
7842;DHT22;3966;51.052;13.820;2023-03-14T05:27:37;11.50;99.90
7842;DHT22;3966;51.052;13.820;2023-03-14T05:30:05;11.50;99.90
7842;DHT22;3966;51.052;13.820;2023-03-14T05:32:31;11.50;99.90
7842;DHT22;3966;51.052;13.820;2023-03-14T05:34:56;11.50;99.90
7842;DHT22;3966;51.052;13.820;2023-03-14T05:37:25;11.50;99.90
7842;DHT22;3966;51.052;13.820;2023-03-14T05:39:51;11.50;99.90
7842;DHT22;3966;51.052;13.820;2023-03-14T05:42:16;11.50;99.90
7842;DHT22;3966;51.052;13.820;2023-03-14T05:44:42;11.40;99.90
7842;DHT22;3966;51.052;13.820;2023-03-14T05:47:08;11.40;99.90
7842;DHT22;3966;51.052;13.820;2023-03-14T05:49:33;11.40;99.90
7842;DHT22;3966;51.052;13.820;2023-03-14T05:51:59;11.40;99.90
7842;DHT22;3966;51.052;13.820;2023-03-14T05:54:24;11.40;99.90
7842;DHT22;3966;51.052;13.820;2023-03-14T05:56:50;11.30;99.90
7842;DHT22;3966;51.052;13.820;2023-03-14T05:59:15;11.30;99.90
7842;DHT22;3966;51.052;13.820;2023-03-14T06:01:41;11.30;99.90
7842;DHT22;3966;51.052;13.820;2023-03-14T06:04:07;11.20;99.90
7842;DHT22;3966;51.052;13.820;2023-03-14T06:06:32;11.30;99.90
7842;DHT22;3966;51.052;13.820;2023-03-14T06:08:58;11.20;99.90
7842;DHT22;3966;51.052;13.820;2023-03-14T06:11:24;11.20;99.90
7842;DHT22;3966;51.052;13.820;2023-03-14T06:13:50;11.20;99.90
7842;DHT22;3966;51.052;13.820;2023-03-14T06:16:16;11.20;99.90
7842;DHT22;3966;51.052;13.820;2023-03-14T06:18:42;11.20;99.90
7842;DHT22;3966;51.052;13.820;2023-03-14T06:21:07;11.20;99.90
7842;DHT22;3966;51.052;13.820;2023-03-14T06:23:33;11.30;99.90
7842;DHT22;3966;51.052;13.820;2023-03-14T06:25:59;11.30;99.90
7842;DHT22;3966;51.052;13.820;2023-03-14T06:28:25;11.30;99.90
7842;DHT22;3966;51.052;13.820;2023-03-14T06:30:50;11.40;99.90
7842;DHT22;3966;51.052;13.820;2023-03-14T06:33:16;11.40;99.90
7842;DHT22;3966;51.052;13.820;2023-03-14T06:35:41;11.40;99.90
7842;DHT22;3966;51.052;13.820;2023-03-14T06:38:07;11.40;99.90
7842;DHT22;3966;51.052;13.820;2023-03-14T06:40:33;11.50;99.90
7842;DHT22;3966;51.052;13.820;2023-03-14T06:42:58;11.50;99.90
7842;DHT22;3966;51.052;13.820;2023-03-14T06:45:24;11.50;99.90
7842;DHT22;3966;51.052;13.820;2023-03-14T06:47:50;11.60;99.90
7842;DHT22;3966;51.052;13.820;2023-03-14T06:50:15;11.60;99.90
7842;DHT22;3966;51.052;13.820;2023-03-14T06:52:41;11.60;99.90
7842;DHT22;3966;51.052;13.820;2023-03-14T06:55:11;11.60;99.90
7842;DHT22;3966;51.052;13.820;2023-03-14T06:57:37;11.50;99.90
7842;DHT22;3966;51.052;13.820;2023-03-14T07:00:04;11.50;99.90
7842;DHT22;3966;51.052;13.820;2023-03-14T07:02:30;11.50;99.90
7842;DHT22;3966;51.052;13.820;2023-03-14T07:04:56;11.60;99.90
7842;DHT22;3966;51.052;13.820;2023-03-14T07:07:21;11.60;99.90
7842;DHT22;3966;51.052;13.820;2023-03-14T07:09:47;11.70;99.90
7842;DHT22;3966;51.052;13.820;2023-03-14T07:12:13;11.70;99.90
7842;DHT22;3966;51.052;13.820;2023-03-14T07:14:39;11.70;99.90
7842;DHT22;3966;51.052;13.820;2023-03-14T07:17:05;11.80;99.90
7842;DHT22;3966;51.052;13.820;2023-03-14T07:19:30;11.80;99.90
7842;DHT22;3966;51.052;13.820;2023-03-14T07:21:56;11.80;99.90
7842;DHT22;3966;51.052;13.820;2023-03-14T07:24:22;11.80;99.90
7842;DHT22;3966;51.052;13.820;2023-03-14T07:26:48;11.70;99.90
7842;DHT22;3966;51.052;13.820;2023-03-14T07:29:14;11.80;99.90
7842;DHT22;3966;51.052;13.820;2023-03-14T07:31:40;11.70;99.90
7842;DHT22;3966;51.052;13.820;2023-03-14T07:34:06;11.80;99.90
7842;DHT22;3966;51.052;13.820;2023-03-14T07:36:32;11.70;99.90
7842;DHT22;3966;51.052;13.820;2023-03-14T07:38:58;11.80;99.90
7842;DHT22;3966;51.052;13.820;2023-03-14T07:41:24;11.80;99.90
7842;DHT22;3966;51.052;13.820;2023-03-14T07:43:50;11.80;99.90
7842;DHT22;3966;51.052;13.820;2023-03-14T07:46:15;11.80;99.90
7842;DHT22;3966;51.052;13.820;2023-03-14T07:48:42;11.80;99.90
7842;DHT22;3966;51.052;13.820;2023-03-14T07:51:08;11.80;99.90
7842;DHT22;3966;51.052;13.820;2023-03-14T07:53:33;11.80;99.90
7842;DHT22;3966;51.052;13.820;2023-03-14T07:55:59;11.90;99.90
7842;DHT22;3966;51.052;13.820;2023-03-14T07:58:25;11.90;99.90
7842;DHT22;3966;51.052;13.820;2023-03-14T08:00:51;11.90;99.90
7842;DHT22;3966;51.052;13.820;2023-03-14T08:03:17;11.90;99.90
7842;DHT22;3966;51.052;13.820;2023-03-14T08:05:46;12.00;99.90
7842;DHT22;3966;51.052;13.820;2023-03-14T08:08:12;12.00;99.90
7842;DHT22;3966;51.052;13.820;2023-03-14T08:10:38;12.00;99.90
7842;DHT22;3966;51.052;13.820;2023-03-14T08:13:03;12.00;99.90
7842;DHT22;3966;51.052;13.820;2023-03-14T08:15:30;12.00;99.90
7842;DHT22;3966;51.052;13.820;2023-03-14T08:17:56;12.00;99.90
7842;DHT22;3966;51.052;13.820;2023-03-14T08:20:23;12.00;99.90
7842;DHT22;3966;51.052;13.820;2023-03-14T08:22:49;12.00;99.90
7842;DHT22;3966;51.052;13.820;2023-03-14T08:25:15;12.00;99.90
7842;DHT22;3966;51.052;13.820;2023-03-14T08:27:42;12.10;99.90
7842;DHT22;3966;51.052;13.820;2023-03-14T08:30:11;12.10;99.90
7842;DHT22;3966;51.052;13.820;2023-03-14T08:32:37;12.10;99.90
7842;DHT22;3966;51.052;13.820;2023-03-14T08:35:04;12.20;99.90
7842;DHT22;3966;51.052;13.820;2023-03-14T08:37:31;12.30;99.90
7842;DHT22;3966;51.052;13.820;2023-03-14T08:39:57;12.40;99.90
7842;DHT22;3966;51.052;13.820;2023-03-14T08:42:22;12.40;99.90
7842;DHT22;3966;51.052;13.820;2023-03-14T08:44:48;12.50;99.90
7842;DHT22;3966;51.052;13.820;2023-03-14T08:47:14;12.60;99.90
7842;DHT22;3966;51.052;13.820;2023-03-14T08:49:40;12.70;99.90
7842;DHT22;3966;51.052;13.820;2023-03-14T08:52:05;12.80;99.90
7842;DHT22;3966;51.052;13.820;2023-03-14T08:54:31;12.90;99.90
7842;DHT22;3966;51.052;13.820;2023-03-14T08:56:57;13.00;99.90
7842;DHT22;3966;51.052;13.820;2023-03-14T08:59:23;13.10;99.90
7842;DHT22;3966;51.052;13.820;2023-03-14T09:01:49;13.10;99.90
7842;DHT22;3966;51.052;13.820;2023-03-14T09:04:14;13.20;99.90
7842;DHT22;3966;51.052;13.820;2023-03-14T09:06:40;13.20;99.90
7842;DHT22;3966;51.052;13.820;2023-03-14T09:09:06;13.20;99.90
7842;DHT22;3966;51.052;13.820;2023-03-14T09:11:32;13.20;99.90
7842;DHT22;3966;51.052;13.820;2023-03-14T09:13:57;13.20;99.90
7842;DHT22;3966;51.052;13.820;2023-03-14T09:16:23;13.10;99.90
7842;DHT22;3966;51.052;13.820;2023-03-14T09:18:49;13.00;99.90
7842;DHT22;3966;51.052;13.820;2023-03-14T09:21:15;13.10;99.90
7842;DHT22;3966;51.052;13.820;2023-03-14T09:23:41;13.20;99.90
7842;DHT22;3966;51.052;13.820;2023-03-14T09:26:07;13.30;99.90
7842;DHT22;3966;51.052;13.820;2023-03-14T09:28:33;13.30;99.90
7842;DHT22;3966;51.052;13.820;2023-03-14T09:31:06;13.30;99.90
7842;DHT22;3966;51.052;13.820;2023-03-14T09:33:33;13.40;99.90
7842;DHT22;3966;51.052;13.820;2023-03-14T09:35:59;13.40;99.90
7842;DHT22;3966;51.052;13.820;2023-03-14T09:38:25;13.40;99.90
7842;DHT22;3966;51.052;13.820;2023-03-14T09:40:52;13.40;99.90
7842;DHT22;3966;51.052;13.820;2023-03-14T09:43:19;13.30;99.90
7842;DHT22;3966;51.052;13.820;2023-03-14T09:45:48;13.30;99.90
7842;DHT22;3966;51.052;13.820;2023-03-14T09:48:34;13.30;99.90
7842;DHT22;3966;51.052;13.820;2023-03-14T09:51:05;13.30;99.90
7842;DHT22;3966;51.052;13.820;2023-03-14T09:53:42;13.30;99.90
7842;DHT22;3966;51.052;13.820;2023-03-14T09:56:16;13.20;99.90
7842;DHT22;3966;51.052;13.820;2023-03-14T09:58:46;13.10;99.90
7842;DHT22;3966;51.052;13.820;2023-03-14T10:01:16;13.10;99.90
7842;DHT22;3966;51.052;13.820;2023-03-14T10:03:44;13.00;99.90
7842;DHT22;3966;51.052;13.820;2023-03-14T10:06:14;13.00;99.90
7842;DHT22;3966;51.052;13.820;2023-03-14T10:08:41;13.00;99.90
7842;DHT22;3966;51.052;13.820;2023-03-14T10:11:17;13.00;99.90
7842;DHT22;3966;51.052;13.820;2023-03-14T10:14:11;13.00;99.90
7842;DHT22;3966;51.052;13.820;2023-03-14T10:16:43;13.00;99.90
7842;DHT22;3966;51.052;13.820;2023-03-14T10:19:14;13.00;99.90
7842;DHT22;3966;51.052;13.820;2023-03-14T10:21:43;13.00;99.90
7842;DHT22;3966;51.052;13.820;2023-03-14T10:24:16;13.00;99.90
7842;DHT22;3966;51.052;13.820;2023-03-14T10:26:43;13.00;99.90
7842;DHT22;3966;51.052;13.820;2023-03-14T10:29:13;12.90;99.90
7842;DHT22;3966;51.052;13.820;2023-03-14T10:31:54;13.00;99.90
7842;DHT22;3966;51.052;13.820;2023-03-14T10:34:30;13.00;99.90
7842;DHT22;3966;51.052;13.820;2023-03-14T10:36:58;13.00;99.90
7842;DHT22;3966;51.052;13.820;2023-03-14T10:39:32;13.00;99.90
7842;DHT22;3966;51.052;13.820;2023-03-14T10:42:14;13.10;99.90
7842;DHT22;3966;51.052;13.820;2023-03-14T10:44:42;13.20;99.90
7842;DHT22;3966;51.052;13.820;2023-03-14T10:47:19;13.20;99.90
7842;DHT22;3966;51.052;13.820;2023-03-14T10:49:45;13.20;99.90
7842;DHT22;3966;51.052;13.820;2023-03-14T10:54:55;13.20;99.90
7842;DHT22;3966;51.052;13.820;2023-03-14T10:57:22;13.20;99.90
7842;DHT22;3966;51.052;13.820;2023-03-14T10:59:48;13.20;99.90
7842;DHT22;3966;51.052;13.820;2023-03-14T11:05:27;13.20;99.90
7842;DHT22;3966;51.052;13.820;2023-03-14T11:08:01;13.20;99.90
7842;DHT22;3966;51.052;13.820;2023-03-14T11:10:38;13.30;99.90
7842;DHT22;3966;51.052;13.820;2023-03-14T11:13:34;13.30;99.90
7842;DHT22;3966;51.052;13.820;2023-03-14T11:16:14;13.20;99.90
7842;DHT22;3966;51.052;13.820;2023-03-14T11:21:32;13.30;99.90
7842;DHT22;3966;51.052;13.820;2023-03-14T11:24:08;13.30;99.90
7842;DHT22;3966;51.052;13.820;2023-03-14T11:35:20;13.40;99.90
7842;DHT22;3966;51.052;13.820;2023-03-14T11:37:56;13.40;99.90
7842;DHT22;3966;51.052;13.820;2023-03-14T11:40:27;13.50;99.90
7842;DHT22;3966;51.052;13.820;2023-03-14T11:45:50;13.70;99.90
7842;DHT22;3966;51.052;13.820;2023-03-14T11:50:48;14.00;99.90
7842;DHT22;3966;51.052;13.820;2023-03-14T11:55:50;13.90;99.90
7842;DHT22;3966;51.052;13.820;2023-03-14T11:58:29;13.90;99.90
7842;DHT22;3966;51.052;13.820;2023-03-14T12:00:57;13.90;99.90
7842;DHT22;3966;51.052;13.820;2023-03-14T12:06:53;13.70;99.90
7842;DHT22;3966;51.052;13.820;2023-03-14T12:09:23;13.60;99.90
7842;DHT22;3966;51.052;13.820;2023-03-14T12:14:30;13.60;99.90
7842;DHT22;3966;51.052;13.820;2023-03-14T12:19:30;13.80;99.90
7842;DHT22;3966;51.052;13.820;2023-03-14T12:24:34;14.10;99.90
7842;DHT22;3966;51.052;13.820;2023-03-14T12:27:04;14.30;99.90
7842;DHT22;3966;51.052;13.820;2023-03-14T12:29:31;14.40;99.90
7842;DHT22;3966;51.052;13.820;2023-03-14T12:34:31;14.40;99.90
7842;DHT22;3966;51.052;13.820;2023-03-14T12:37:25;14.40;99.90
7842;DHT22;3966;51.052;13.820;2023-03-14T12:40:10;14.50;99.90
7842;DHT22;3966;51.052;13.820;2023-03-14T12:45:35;14.50;99.90
7842;DHT22;3966;51.052;13.820;2023-03-14T12:50:47;14.40;99.90
7842;DHT22;3966;51.052;13.820;2023-03-14T12:53:28;14.10;99.90
7842;DHT22;3966;51.052;13.820;2023-03-14T13:01:33;14.10;99.90
7842;DHT22;3966;51.052;13.820;2023-03-14T13:04:08;14.50;99.90
7842;DHT22;3966;51.052;13.820;2023-03-14T13:06:59;15.10;99.90
7842;DHT22;3966;51.052;13.820;2023-03-14T13:11:56;15.50;99.90
7842;DHT22;3966;51.052;13.820;2023-03-14T13:14:23;15.60;99.90
7842;DHT22;3966;51.052;13.820;2023-03-14T13:16:49;15.60;99.90
7842;DHT22;3966;51.052;13.820;2023-03-14T13:19:27;16.00;99.90
7842;DHT22;3966;51.052;13.820;2023-03-14T13:22:04;16.70;99.90
7842;DHT22;3966;51.052;13.820;2023-03-14T13:24:33;17.40;99.90
7842;DHT22;3966;51.052;13.820;2023-03-14T13:27:00;18.00;99.90
7842;DHT22;3966;51.052;13.820;2023-03-14T13:29:32;17.80;99.90
7842;DHT22;3966;51.052;13.820;2023-03-14T13:32:16;18.50;99.90
7842;DHT22;3966;51.052;13.820;2023-03-14T13:34:42;18.30;99.90
7842;DHT22;3966;51.052;13.820;2023-03-14T13:37:16;18.60;99.90
7842;DHT22;3966;51.052;13.820;2023-03-14T13:39:42;19.00;99.90
7842;DHT22;3966;51.052;13.820;2023-03-14T13:42:15;19.20;99.90
7842;DHT22;3966;51.052;13.820;2023-03-14T13:44:41;19.40;99.90
7842;DHT22;3966;51.052;13.820;2023-03-14T13:47:17;19.10;99.90
7842;DHT22;3966;51.052;13.820;2023-03-14T13:49:43;19.30;99.90
7842;DHT22;3966;51.052;13.820;2023-03-14T13:52:29;19.20;99.00
7842;DHT22;3966;51.052;13.820;2023-03-14T13:54:56;18.60;99.90
7842;DHT22;3966;51.052;13.820;2023-03-14T13:57:23;19.40;99.80
7842;DHT22;3966;51.052;13.820;2023-03-14T14:00:00;19.40;99.00
7842;DHT22;3966;51.052;13.820;2023-03-14T14:02:27;19.50;98.70
7842;DHT22;3966;51.052;13.820;2023-03-14T14:04:53;18.90;99.20
7842;DHT22;3966;51.052;13.820;2023-03-14T14:07:19;19.10;99.70
7842;DHT22;3966;51.052;13.820;2023-03-14T14:09:48;18.70;99.90
7842;DHT22;3966;51.052;13.820;2023-03-14T14:14:53;19.40;97.60
7842;DHT22;3966;51.052;13.820;2023-03-14T14:17:26;18.30;97.70
7842;DHT22;3966;51.052;13.820;2023-03-14T14:19:53;17.20;99.90
7842;DHT22;3966;51.052;13.820;2023-03-14T14:22:19;16.50;99.90
7842;DHT22;3966;51.052;13.820;2023-03-14T14:24:45;16.50;99.90
7842;DHT22;3966;51.052;13.820;2023-03-14T14:27:19;15.90;99.90
7842;DHT22;3966;51.052;13.820;2023-03-14T14:29:58;16.00;99.90
7842;DHT22;3966;51.052;13.820;2023-03-14T14:32:24;16.60;99.90
7842;DHT22;3966;51.052;13.820;2023-03-14T14:34:58;17.80;99.90
7842;DHT22;3966;51.052;13.820;2023-03-14T14:39:53;18.30;99.90
7842;DHT22;3966;51.052;13.820;2023-03-14T14:42:21;18.80;99.90
7842;DHT22;3966;51.052;13.820;2023-03-14T14:44:51;19.50;98.70
7842;DHT22;3966;51.052;13.820;2023-03-14T14:47:27;20.00;97.50
7842;DHT22;3966;51.052;13.820;2023-03-14T14:49:55;20.20;94.30
7842;DHT22;3966;51.052;13.820;2023-03-14T14:52:31;20.40;94.30
7842;DHT22;3966;51.052;13.820;2023-03-14T14:55:01;19.80;94.00
7842;DHT22;3966;51.052;13.820;2023-03-14T14:57:38;19.20;95.80
7842;DHT22;3966;51.052;13.820;2023-03-14T15:00:22;18.50;96.60
7842;DHT22;3966;51.052;13.820;2023-03-14T15:02:52;18.00;99.10
7842;DHT22;3966;51.052;13.820;2023-03-14T15:05:24;17.90;99.90
7842;DHT22;3966;51.052;13.820;2023-03-14T15:07:50;17.90;99.90
7842;DHT22;3966;51.052;13.820;2023-03-14T15:10:18;18.50;99.90
7842;DHT22;3966;51.052;13.820;2023-03-14T15:12:44;19.10;98.20
7842;DHT22;3966;51.052;13.820;2023-03-14T15:15:11;19.80;96.30
7842;DHT22;3966;51.052;13.820;2023-03-14T15:17:38;19.60;96.40
7842;DHT22;3966;51.052;13.820;2023-03-14T15:20:05;19.90;94.20
7842;DHT22;3966;51.052;13.820;2023-03-14T15:22:31;20.20;94.50
7842;DHT22;3966;51.052;13.820;2023-03-14T15:24:57;19.70;94.50
7842;DHT22;3966;51.052;13.820;2023-03-14T15:27:22;19.00;96.00
7842;DHT22;3966;51.052;13.820;2023-03-14T15:29:48;18.80;96.40
7842;DHT22;3966;51.052;13.820;2023-03-14T15:32:16;18.50;96.50
7842;DHT22;3966;51.052;13.820;2023-03-14T15:34:42;18.10;98.10
7842;DHT22;3966;51.052;13.820;2023-03-14T15:37:13;17.60;98.60
7842;DHT22;3966;51.052;13.820;2023-03-14T15:39:39;17.30;99.90
7842;DHT22;3966;51.052;13.820;2023-03-14T15:42:05;17.10;99.90
7842;DHT22;3966;51.052;13.820;2023-03-14T15:44:31;16.80;99.90
7842;DHT22;3966;51.052;13.820;2023-03-14T15:46:56;16.50;99.90
7842;DHT22;3966;51.052;13.820;2023-03-14T15:49:22;16.10;99.90
7842;DHT22;3966;51.052;13.820;2023-03-14T15:51:48;15.90;99.90
7842;DHT22;3966;51.052;13.820;2023-03-14T15:54:14;15.70;99.90
7842;DHT22;3966;51.052;13.820;2023-03-14T15:56:40;15.60;99.90
7842;DHT22;3966;51.052;13.820;2023-03-14T15:59:05;15.70;99.90
7842;DHT22;3966;51.052;13.820;2023-03-14T16:01:31;15.60;99.90
7842;DHT22;3966;51.052;13.820;2023-03-14T16:03:57;15.60;99.90
7842;DHT22;3966;51.052;13.820;2023-03-14T16:06:22;15.40;99.90
7842;DHT22;3966;51.052;13.820;2023-03-14T16:08:48;15.10;99.90
7842;DHT22;3966;51.052;13.820;2023-03-14T16:11:15;15.00;99.90
7842;DHT22;3966;51.052;13.820;2023-03-14T16:13:43;14.90;99.90
7842;DHT22;3966;51.052;13.820;2023-03-14T16:16:09;14.90;99.90
7842;DHT22;3966;51.052;13.820;2023-03-14T16:18:37;14.60;99.90
7842;DHT22;3966;51.052;13.820;2023-03-14T16:21:05;14.50;99.90
7842;DHT22;3966;51.052;13.820;2023-03-14T16:23:31;14.40;99.90
7842;DHT22;3966;51.052;13.820;2023-03-14T16:25:58;14.20;99.90
7842;DHT22;3966;51.052;13.820;2023-03-14T16:28:24;14.10;99.90
7842;DHT22;3966;51.052;13.820;2023-03-14T16:30:50;14.10;99.90
7842;DHT22;3966;51.052;13.820;2023-03-14T16:33:16;14.00;99.90
7842;DHT22;3966;51.052;13.820;2023-03-14T16:35:59;13.90;99.90
7842;DHT22;3966;51.052;13.820;2023-03-14T16:38:26;13.70;99.90
7842;DHT22;3966;51.052;13.820;2023-03-14T16:40:59;13.30;99.90
7842;DHT22;3966;51.052;13.820;2023-03-14T16:43:25;12.90;99.90
7842;DHT22;3966;51.052;13.820;2023-03-14T16:45:51;12.70;99.90
7842;DHT22;3966;51.052;13.820;2023-03-14T16:48:17;12.30;99.90
7842;DHT22;3966;51.052;13.820;2023-03-14T16:50:42;11.90;99.90
7842;DHT22;3966;51.052;13.820;2023-03-14T16:53:08;10.80;99.90
7842;DHT22;3966;51.052;13.820;2023-03-14T16:55:39;9.10;99.90
7842;DHT22;3966;51.052;13.820;2023-03-14T16:58:05;8.40;99.90
7842;DHT22;3966;51.052;13.820;2023-03-14T17:00:31;7.80;99.90